FDB1689 OMDB-UCFM
Flight info
| Callsign | FDB1689 |
|---|---|
| Flight time | 3h 24m |
| Altitude | 35000 |
| Route | DAVMO DCT TBS G663 MSD A647 NAZAR A847 NINOP B713 DERKI/K0841F350 Q678 EDOSU T609 BAMGU L141 TISIB L143 RUDEK DCT GASTA JETTO1 |
| Aircraft | B738/M-SDGIJ1LRWY/SB1 |
Departure
| Time | 2026-05-07 15:44 |
|---|---|
| Airport | Dubai International Airport (OMDB) |
Arrival
| Time | 2026-05-07 19:08 |
|---|---|
| Airport | Manas International Airport (UCFM) |
| Time | Latitude | Longitude | Altitude | Speed | Heading |
|---|---|---|---|---|---|
| 2026-05-07 14:58 | 25.26669 | 55.34306 | 69 ft | 0 kts | 31° |
| 2026-05-07 14:58 | 25.26669 | 55.34307 | 69 ft | 0 kts | 31° |
| 2026-05-07 14:59 | 25.26669 | 55.34306 | 69 ft | 0 kts | 31° |
| 2026-05-07 15:30 | 25.26668 | 55.34306 | 69 ft | 1 kts | 31° |
| 2026-05-07 15:30 | 25.26656 | 55.34298 | 69 ft | 2 kts | 31° |
| 2026-05-07 15:30 | 25.26643 | 55.34289 | 69 ft | 2 kts | 31° |
| 2026-05-07 15:30 | 25.26630 | 55.34280 | 69 ft | 2 kts | 31° |
| 2026-05-07 15:31 | 25.26618 | 55.34271 | 69 ft | 2 kts | 57° |
| 2026-05-07 15:31 | 25.26613 | 55.34255 | 69 ft | 2 kts | 85° |
| 2026-05-07 15:31 | 25.26615 | 55.34239 | 69 ft | 1 kts | 114° |
| 2026-05-07 15:31 | 25.26618 | 55.34233 | 69 ft | 1 kts | 123° |
| 2026-05-07 15:32 | 25.26619 | 55.34230 | 69 ft | 0 kts | 121° |
| 2026-05-07 15:34 | 25.26614 | 55.34240 | 69 ft | 4 kts | 121° |
| 2026-05-07 15:34 | 25.26589 | 55.34286 | 69 ft | 8 kts | 121° |
| 2026-05-07 15:35 | 25.26559 | 55.34340 | 69 ft | 7 kts | 121° |
| 2026-05-07 15:35 | 25.26530 | 55.34393 | 69 ft | 9 kts | 121° |
| 2026-05-07 15:35 | 25.26493 | 55.34462 | 69 ft | 10 kts | 121° |
| 2026-05-07 15:35 | 25.26478 | 55.34532 | 69 ft | 9 kts | 69° |
| 2026-05-07 15:36 | 25.26500 | 55.34594 | 69 ft | 9 kts | 94° |
| 2026-05-07 15:36 | 25.26467 | 55.34666 | 69 ft | 12 kts | 121° |
| 2026-05-07 15:36 | 25.26419 | 55.34754 | 69 ft | 14 kts | 120° |
| 2026-05-07 15:36 | 25.26362 | 55.34860 | 69 ft | 17 kts | 120° |
| 2026-05-07 15:37 | 25.26294 | 55.34981 | 69 ft | 20 kts | 121° |
| 2026-05-07 15:37 | 25.26216 | 55.35121 | 69 ft | 22 kts | 121° |
| 2026-05-07 15:37 | 25.26135 | 55.35268 | 69 ft | 21 kts | 121° |
| 2026-05-07 15:37 | 25.26059 | 55.35406 | 69 ft | 21 kts | 122° |
| 2026-05-07 15:38 | 25.25975 | 55.35554 | 69 ft | 23 kts | 121° |
| 2026-05-07 15:38 | 25.25895 | 55.35700 | 69 ft | 21 kts | 121° |
| 2026-05-07 15:38 | 25.25820 | 55.35835 | 69 ft | 19 kts | 121° |
| 2026-05-07 15:38 | 25.25753 | 55.35957 | 69 ft | 18 kts | 121° |
| 2026-05-07 15:39 | 25.25681 | 55.36086 | 69 ft | 21 kts | 121° |
| 2026-05-07 15:39 | 25.25601 | 55.36230 | 69 ft | 21 kts | 121° |
| 2026-05-07 15:39 | 25.25525 | 55.36367 | 69 ft | 20 kts | 121° |
| 2026-05-07 15:39 | 25.25452 | 55.36497 | 69 ft | 20 kts | 121° |
| 2026-05-07 15:40 | 25.25367 | 55.36649 | 69 ft | 24 kts | 121° |
| 2026-05-07 15:40 | 25.25283 | 55.36805 | 69 ft | 22 kts | 121° |
| 2026-05-07 15:40 | 25.25201 | 55.36955 | 69 ft | 24 kts | 123° |
| 2026-05-07 15:40 | 25.25099 | 55.37133 | 69 ft | 27 kts | 121° |
| 2026-05-07 15:41 | 25.25000 | 55.37309 | 69 ft | 26 kts | 121° |
| 2026-05-07 15:41 | 25.24910 | 55.37476 | 69 ft | 24 kts | 120° |
| 2026-05-07 15:41 | 25.24825 | 55.37631 | 69 ft | 22 kts | 121° |
| 2026-05-07 15:41 | 25.24745 | 55.37774 | 70 ft | 20 kts | 121° |
| 2026-05-07 15:42 | 25.24682 | 55.37888 | 70 ft | 16 kts | 120° |
| 2026-05-07 15:42 | 25.24687 | 55.37965 | 70 ft | 9 kts | 35° |
| 2026-05-07 15:42 | 25.24736 | 55.38000 | 70 ft | 8 kts | 31° |
| 2026-05-07 15:42 | 25.24782 | 55.38030 | 70 ft | 5 kts | 24° |
| 2026-05-07 15:43 | 25.24808 | 55.38019 | 70 ft | 4 kts | 312° |
| 2026-05-07 15:43 | 25.24860 | 55.37933 | 70 ft | 37 kts | 302° |
| 2026-05-07 15:43 | 25.25123 | 55.37458 | 70 ft | 105 kts | 301° |
| 2026-05-07 15:43 | 25.25612 | 55.36575 | 69 ft | 162 kts | 301° |
| 2026-05-07 15:44 | 25.26258 | 55.35398 | 444 ft | 182 kts | 301° |
| 2026-05-07 15:44 | 25.26889 | 55.34273 | 1294 ft | 173 kts | 301° |
| 2026-05-07 15:44 | 25.27544 | 55.33102 | 1614 ft | 189 kts | 300° |
| 2026-05-07 15:44 | 25.28243 | 55.31846 | 2108 ft | 194 kts | 300° |
| 2026-05-07 15:45 | 25.28992 | 55.30593 | 2618 ft | 199 kts | 307° |
| 2026-05-07 15:45 | 25.30108 | 55.29662 | 3083 ft | 210 kts | 338° |
| 2026-05-07 15:45 | 25.31630 | 55.29447 | 3420 ft | 227 kts | 0° |
| 2026-05-07 15:45 | 25.33254 | 55.29532 | 3773 ft | 240 kts | 1° |
| 2026-05-07 15:46 | 25.36649 | 55.29648 | 4903 ft | 247 kts | 0° |
| 2026-05-07 15:46 | 25.38362 | 55.29687 | 5555 ft | 247 kts | 0° |
| 2026-05-07 15:46 | 25.40074 | 55.29839 | 6185 ft | 249 kts | 11° |
| 2026-05-07 15:47 | 25.41738 | 55.30441 | 6752 ft | 254 kts | 22° |
| 2026-05-07 15:47 | 25.43355 | 55.31252 | 7336 ft | 257 kts | 24° |
| 2026-05-07 15:47 | 25.44982 | 55.32078 | 7832 ft | 266 kts | 23° |
| 2026-05-07 15:47 | 25.46736 | 55.32928 | 8228 ft | 278 kts | 22° |
| 2026-05-07 15:48 | 25.48548 | 55.33777 | 8648 ft | 290 kts | 21° |
| 2026-05-07 15:48 | 25.50424 | 55.34647 | 9282 ft | 293 kts | 21° |
| 2026-05-07 15:48 | 25.52283 | 55.35509 | 9978 ft | 294 kts | 22° |
| 2026-05-07 15:48 | 25.54189 | 55.36395 | 10516 ft | 302 kts | 22° |
| 2026-05-07 15:49 | 25.56187 | 55.37323 | 10938 ft | 317 kts | 22° |
| 2026-05-07 15:49 | 25.58227 | 55.38392 | 11279 ft | 332 kts | 29° |
| 2026-05-07 15:49 | 25.60228 | 55.39780 | 11552 ft | 347 kts | 34° |
| 2026-05-07 15:49 | 25.62225 | 55.41344 | 11839 ft | 363 kts | 36° |
| 2026-05-07 15:50 | 25.64316 | 55.43037 | 12203 ft | 374 kts | 36° |
| 2026-05-07 15:50 | 25.66399 | 55.44743 | 12794 ft | 377 kts | 39° |
| 2026-05-07 15:50 | 25.68389 | 55.46653 | 13403 ft | 380 kts | 43° |
| 2026-05-07 15:50 | 25.70343 | 55.48674 | 13896 ft | 385 kts | 44° |
| 2026-05-07 15:51 | 25.72273 | 55.50719 | 14044 ft | 390 kts | 44° |
| 2026-05-07 15:51 | 25.74232 | 55.52809 | 14787 ft | 389 kts | 44° |
| 2026-05-07 15:51 | 25.76180 | 55.54882 | 15463 ft | 390 kts | 44° |
| 2026-05-07 15:51 | 25.78145 | 55.56964 | 16008 ft | 395 kts | 44° |
| 2026-05-07 15:52 | 25.80125 | 55.59055 | 16613 ft | 398 kts | 44° |
| 2026-05-07 15:52 | 25.82170 | 55.61190 | 17182 ft | 403 kts | 43° |
| 2026-05-07 15:52 | 25.84312 | 55.63156 | 17742 ft | 407 kts | 36° |
| 2026-05-07 15:52 | 25.86817 | 55.64721 | 18257 ft | 412 kts | 22° |
| 2026-05-07 15:53 | 25.89561 | 55.65609 | 18777 ft | 416 kts | 12° |
| 2026-05-07 15:53 | 25.92451 | 55.66163 | 19275 ft | 421 kts | 8° |
| 2026-05-07 15:53 | 25.95376 | 55.66607 | 19773 ft | 425 kts | 7° |
| 2026-05-07 15:53 | 25.98306 | 55.67008 | 20288 ft | 428 kts | 6° |
| 2026-05-07 15:54 | 26.01276 | 55.67404 | 20765 ft | 432 kts | 6° |
| 2026-05-07 15:54 | 26.04243 | 55.67804 | 21246 ft | 435 kts | 6° |
| 2026-05-07 15:54 | 26.07269 | 55.68222 | 21684 ft | 439 kts | 6° |
| 2026-05-07 15:54 | 26.10333 | 55.68655 | 22158 ft | 442 kts | 6° |
| 2026-05-07 15:55 | 26.13417 | 55.69098 | 22595 ft | 446 kts | 6° |
| 2026-05-07 15:55 | 26.16474 | 55.69542 | 23054 ft | 448 kts | 6° |
| 2026-05-07 15:55 | 26.19567 | 55.69995 | 23478 ft | 451 kts | 6° |
| 2026-05-07 15:55 | 26.22720 | 55.70459 | 23891 ft | 455 kts | 6° |
| 2026-05-07 15:56 | 26.25861 | 55.70923 | 24333 ft | 457 kts | 6° |
| 2026-05-07 15:56 | 26.29025 | 55.71392 | 24738 ft | 460 kts | 5° |
| 2026-05-07 15:56 | 26.32189 | 55.71861 | 25130 ft | 463 kts | 5° |
| 2026-05-07 15:56 | 26.35399 | 55.72338 | 25525 ft | 466 kts | 5° |
| 2026-05-07 15:57 | 26.38608 | 55.72814 | 25912 ft | 468 kts | 5° |
| 2026-05-07 15:57 | 26.41859 | 55.73297 | 26270 ft | 472 kts | 5° |
| 2026-05-07 15:57 | 26.45132 | 55.73784 | 26630 ft | 474 kts | 4° |
| 2026-05-07 15:57 | 26.48429 | 55.74274 | 27004 ft | 477 kts | 4° |
| 2026-05-07 15:58 | 26.51737 | 55.74766 | 27339 ft | 480 kts | 4° |
| 2026-05-07 15:58 | 26.55029 | 55.75257 | 27663 ft | 483 kts | 4° |
| 2026-05-07 15:58 | 26.58371 | 55.75756 | 28026 ft | 485 kts | 4° |
| 2026-05-07 15:58 | 26.61727 | 55.76258 | 28556 ft | 483 kts | 4° |
| 2026-05-07 15:59 | 26.65063 | 55.76759 | 29059 ft | 481 kts | 3° |
| 2026-05-07 15:59 | 26.68369 | 55.77255 | 29517 ft | 480 kts | 3° |
| 2026-05-07 15:59 | 26.71648 | 55.77747 | 29970 ft | 479 kts | 3° |
| 2026-05-07 15:59 | 26.74951 | 55.78242 | 30443 ft | 477 kts | 2° |
| 2026-05-07 16:00 | 26.78245 | 55.78736 | 30907 ft | 476 kts | 2° |
| 2026-05-07 16:00 | 26.81526 | 55.79229 | 31339 ft | 474 kts | 2° |
| 2026-05-07 16:00 | 26.84792 | 55.79719 | 31728 ft | 474 kts | 2° |
| 2026-05-07 16:00 | 26.88040 | 55.80206 | 32151 ft | 472 kts | 2° |
| 2026-05-07 16:01 | 26.91334 | 55.80701 | 32629 ft | 469 kts | 1° |
| 2026-05-07 16:01 | 26.94565 | 55.81189 | 33056 ft | 468 kts | 2° |
| 2026-05-07 16:01 | 26.97800 | 55.81739 | 33474 ft | 469 kts | 3° |
| 2026-05-07 16:01 | 27.01008 | 55.82375 | 33900 ft | 468 kts | 4° |
| 2026-05-07 16:02 | 27.04204 | 55.83062 | 34240 ft | 469 kts | 5° |
| 2026-05-07 16:02 | 27.07420 | 55.83777 | 34522 ft | 470 kts | 5° |
| 2026-05-07 16:02 | 27.10638 | 55.84502 | 34736 ft | 471 kts | 5° |
| 2026-05-07 16:03 | 27.17041 | 55.85947 | 34769 ft | 468 kts | 5° |
| 2026-05-07 16:03 | 27.23445 | 55.87384 | 34787 ft | 467 kts | 5° |
| 2026-05-07 16:04 | 27.29822 | 55.88802 | 34797 ft | 468 kts | 5° |
| 2026-05-07 16:04 | 27.36192 | 55.90218 | 34825 ft | 468 kts | 4° |
| 2026-05-07 16:05 | 27.42625 | 55.91644 | 34843 ft | 467 kts | 4° |
| 2026-05-07 16:05 | 27.48994 | 55.93058 | 34864 ft | 467 kts | 4° |
| 2026-05-07 16:06 | 27.55376 | 55.94476 | 34894 ft | 468 kts | 4° |
| 2026-05-07 16:06 | 27.61765 | 55.95895 | 34959 ft | 470 kts | 4° |
| 2026-05-07 16:07 | 27.68180 | 55.97324 | 35008 ft | 469 kts | 4° |
| 2026-05-07 16:07 | 27.74591 | 55.98753 | 35061 ft | 470 kts | 4° |
| 2026-05-07 16:08 | 27.81029 | 56.00190 | 35076 ft | 470 kts | 4° |
| 2026-05-07 16:08 | 27.87463 | 56.01630 | 35093 ft | 470 kts | 4° |
| 2026-05-07 16:09 | 27.93855 | 56.03061 | 35087 ft | 469 kts | 4° |
| 2026-05-07 16:09 | 28.00255 | 56.04495 | 35110 ft | 468 kts | 4° |
| 2026-05-07 16:10 | 28.06646 | 56.05931 | 35127 ft | 469 kts | 4° |
| 2026-05-07 16:10 | 28.13059 | 56.07368 | 35131 ft | 470 kts | 4° |
| 2026-05-07 16:11 | 28.19511 | 56.08741 | 35126 ft | 469 kts | 1° |
| 2026-05-07 16:11 | 28.25932 | 56.09701 | 35139 ft | 465 kts | 359° |
| 2026-05-07 16:12 | 28.32371 | 56.10523 | 35147 ft | 465 kts | 359° |
| 2026-05-07 16:12 | 28.38813 | 56.11369 | 35164 ft | 463 kts | 359° |
| 2026-05-07 16:13 | 28.45238 | 56.12248 | 35181 ft | 465 kts | 359° |
| 2026-05-07 16:13 | 28.51641 | 56.13144 | 35182 ft | 465 kts | 359° |
| 2026-05-07 16:14 | 28.58069 | 56.14059 | 35236 ft | 465 kts | 359° |
| 2026-05-07 16:14 | 28.64347 | 56.14952 | 35272 ft | 467 kts | 359° |
| 2026-05-07 16:15 | 28.70815 | 56.15880 | 35312 ft | 466 kts | 359° |
| 2026-05-07 16:15 | 28.77082 | 56.16777 | 35344 ft | 467 kts | 359° |
| 2026-05-07 16:16 | 28.83513 | 56.17701 | 35357 ft | 466 kts | 359° |
| 2026-05-07 16:16 | 28.89981 | 56.18626 | 35368 ft | 465 kts | 359° |
| 2026-05-07 16:17 | 28.96388 | 56.19542 | 35381 ft | 465 kts | 359° |
| 2026-05-07 16:17 | 29.02830 | 56.20460 | 35397 ft | 468 kts | 359° |
| 2026-05-07 16:18 | 29.09297 | 56.21388 | 35412 ft | 467 kts | 359° |
| 2026-05-07 16:18 | 29.15743 | 56.22315 | 35428 ft | 466 kts | 359° |
| 2026-05-07 16:19 | 29.22038 | 56.23217 | 35442 ft | 468 kts | 359° |
| 2026-05-07 16:19 | 29.28526 | 56.24152 | 35474 ft | 466 kts | 359° |
| 2026-05-07 16:20 | 29.34956 | 56.25076 | 35495 ft | 467 kts | 359° |
| 2026-05-07 16:20 | 29.41410 | 56.26010 | 35512 ft | 466 kts | 359° |
| 2026-05-07 16:21 | 29.47817 | 56.26937 | 35536 ft | 465 kts | 359° |
| 2026-05-07 16:21 | 29.54254 | 56.27869 | 35550 ft | 466 kts | 359° |
| 2026-05-07 16:22 | 29.60694 | 56.28799 | 35560 ft | 468 kts | 358° |
| 2026-05-07 16:22 | 29.67176 | 56.29737 | 35569 ft | 467 kts | 359° |
| 2026-05-07 16:23 | 29.73624 | 56.30674 | 35569 ft | 467 kts | 358° |
| 2026-05-07 16:23 | 29.80056 | 56.31607 | 35572 ft | 469 kts | 358° |
| 2026-05-07 16:24 | 29.86520 | 56.32547 | 35565 ft | 467 kts | 359° |
| 2026-05-07 16:24 | 29.92997 | 56.33493 | 35552 ft | 467 kts | 358° |
| 2026-05-07 16:25 | 29.99432 | 56.34430 | 35530 ft | 470 kts | 358° |
| 2026-05-07 16:25 | 30.05916 | 56.35380 | 35517 ft | 467 kts | 358° |
| 2026-05-07 16:26 | 30.12372 | 56.36324 | 35488 ft | 471 kts | 358° |
| 2026-05-07 16:26 | 30.18847 | 56.37276 | 35453 ft | 467 kts | 358° |
| 2026-05-07 16:27 | 30.25328 | 56.38222 | 35417 ft | 466 kts | 358° |
| 2026-05-07 16:27 | 30.31756 | 56.39152 | 35417 ft | 467 kts | 358° |
| 2026-05-07 16:28 | 30.38201 | 56.40085 | 35420 ft | 466 kts | 358° |
| 2026-05-07 16:28 | 30.44662 | 56.41022 | 35423 ft | 465 kts | 358° |
| 2026-05-07 16:29 | 30.51076 | 56.41954 | 35441 ft | 469 kts | 358° |
| 2026-05-07 16:29 | 30.57558 | 56.42900 | 35429 ft | 465 kts | 358° |
| 2026-05-07 16:30 | 30.64002 | 56.43838 | 35409 ft | 467 kts | 358° |
| 2026-05-07 16:30 | 30.70439 | 56.44782 | 35403 ft | 466 kts | 358° |
| 2026-05-07 16:31 | 30.76827 | 56.45719 | 35372 ft | 466 kts | 358° |
| 2026-05-07 16:31 | 30.83273 | 56.46662 | 35383 ft | 465 kts | 358° |
| 2026-05-07 16:32 | 30.89707 | 56.47608 | 35369 ft | 465 kts | 358° |
| 2026-05-07 16:32 | 30.96137 | 56.48552 | 35383 ft | 465 kts | 358° |
| 2026-05-07 16:33 | 31.02538 | 56.49493 | 35388 ft | 465 kts | 358° |
| 2026-05-07 16:33 | 31.08976 | 56.50429 | 35429 ft | 466 kts | 358° |
| 2026-05-07 16:34 | 31.15422 | 56.51369 | 35461 ft | 467 kts | 358° |
| 2026-05-07 16:34 | 31.21881 | 56.52311 | 35473 ft | 465 kts | 358° |
| 2026-05-07 16:35 | 31.28266 | 56.53248 | 35470 ft | 468 kts | 358° |
| 2026-05-07 16:35 | 31.34724 | 56.54193 | 35415 ft | 463 kts | 358° |
| 2026-05-07 16:36 | 31.41126 | 56.55135 | 35364 ft | 465 kts | 358° |
| 2026-05-07 16:36 | 31.47577 | 56.56082 | 35295 ft | 465 kts | 358° |
| 2026-05-07 16:37 | 31.54012 | 56.57025 | 35243 ft | 466 kts | 358° |
| 2026-05-07 16:37 | 31.60436 | 56.57973 | 35214 ft | 465 kts | 358° |
| 2026-05-07 16:38 | 31.66896 | 56.58926 | 35186 ft | 468 kts | 358° |
| 2026-05-07 16:38 | 31.73311 | 56.59876 | 35160 ft | 467 kts | 358° |
| 2026-05-07 16:39 | 31.79757 | 56.60833 | 35128 ft | 463 kts | 358° |
| 2026-05-07 16:39 | 31.86143 | 56.61778 | 35114 ft | 466 kts | 358° |
| 2026-05-07 16:40 | 31.92573 | 56.62732 | 35102 ft | 464 kts | 358° |
| 2026-05-07 16:40 | 31.99010 | 56.63683 | 35076 ft | 466 kts | 358° |
| 2026-05-07 16:41 | 32.05412 | 56.64639 | 35075 ft | 465 kts | 359° |
| 2026-05-07 16:41 | 32.11871 | 56.65604 | 35095 ft | 467 kts | 359° |
| 2026-05-07 16:42 | 32.18312 | 56.66563 | 35089 ft | 467 kts | 359° |
| 2026-05-07 16:42 | 32.24727 | 56.67525 | 35103 ft | 466 kts | 359° |
| 2026-05-07 16:43 | 32.31168 | 56.68490 | 35110 ft | 466 kts | 359° |
| 2026-05-07 16:43 | 32.37578 | 56.69452 | 35099 ft | 466 kts | 359° |
| 2026-05-07 16:44 | 32.44038 | 56.70422 | 35099 ft | 465 kts | 359° |
| 2026-05-07 16:44 | 32.50419 | 56.71383 | 35093 ft | 465 kts | 359° |
| 2026-05-07 16:45 | 32.56878 | 56.72355 | 35088 ft | 466 kts | 359° |
| 2026-05-07 16:45 | 32.63296 | 56.73324 | 35088 ft | 466 kts | 359° |
| 2026-05-07 16:46 | 32.69723 | 56.74293 | 35081 ft | 466 kts | 359° |
| 2026-05-07 16:46 | 32.76155 | 56.75268 | 35063 ft | 466 kts | 359° |
| 2026-05-07 16:47 | 32.82555 | 56.76237 | 35055 ft | 465 kts | 359° |
| 2026-05-07 16:47 | 32.88980 | 56.77211 | 35051 ft | 466 kts | 359° |
| 2026-05-07 16:48 | 32.95433 | 56.78191 | 35053 ft | 465 kts | 359° |
| 2026-05-07 16:48 | 33.01843 | 56.79167 | 35046 ft | 463 kts | 359° |
| 2026-05-07 16:49 | 33.08249 | 56.80142 | 35032 ft | 464 kts | 359° |
| 2026-05-07 16:49 | 33.14630 | 56.81116 | 35020 ft | 464 kts | 359° |
| 2026-05-07 16:50 | 33.21061 | 56.82097 | 34992 ft | 464 kts | 359° |
| 2026-05-07 16:50 | 33.27492 | 56.83094 | 34978 ft | 467 kts | 0° |
| 2026-05-07 16:51 | 33.33904 | 56.84198 | 34981 ft | 466 kts | 1° |
| 2026-05-07 16:51 | 33.40309 | 56.85341 | 34986 ft | 467 kts | 0° |
| 2026-05-07 16:52 | 33.46764 | 56.86490 | 34999 ft | 465 kts | 0° |
| 2026-05-07 16:52 | 33.53148 | 56.87620 | 35008 ft | 465 kts | 0° |
| 2026-05-07 16:53 | 33.59553 | 56.88750 | 35026 ft | 465 kts | 1° |
| 2026-05-07 16:53 | 33.65948 | 56.90608 | 35038 ft | 486 kts | 16° |
| 2026-05-07 16:53 | 33.68932 | 56.92566 | 35060 ft | 494 kts | 28° |
| 2026-05-07 16:54 | 33.71673 | 56.95030 | 35070 ft | 497 kts | 33° |
| 2026-05-07 16:54 | 33.76944 | 57.00397 | 35099 ft | 499 kts | 36° |
| 2026-05-07 16:55 | 33.82147 | 57.05920 | 35144 ft | 499 kts | 36° |
| 2026-05-07 16:55 | 33.87351 | 57.11424 | 35172 ft | 499 kts | 36° |
| 2026-05-07 16:56 | 33.92564 | 57.16883 | 35178 ft | 498 kts | 35° |
| 2026-05-07 16:56 | 34.00423 | 57.25067 | 35114 ft | 498 kts | 35° |
| 2026-05-07 16:57 | 34.05666 | 57.30523 | 35097 ft | 500 kts | 35° |
| 2026-05-07 16:57 | 34.10955 | 57.36031 | 35085 ft | 499 kts | 35° |
| 2026-05-07 16:58 | 34.16177 | 57.41479 | 35086 ft | 500 kts | 35° |
| 2026-05-07 16:58 | 34.21420 | 57.46966 | 35074 ft | 499 kts | 35° |
| 2026-05-07 16:59 | 34.26653 | 57.52454 | 35071 ft | 500 kts | 35° |
| 2026-05-07 16:59 | 34.31520 | 57.57564 | 35066 ft | 500 kts | 35° |
| 2026-05-07 17:00 | 34.36768 | 57.63083 | 35066 ft | 499 kts | 35° |
| 2026-05-07 17:00 | 34.42026 | 57.68621 | 35067 ft | 502 kts | 36° |
| 2026-05-07 17:01 | 34.47273 | 57.74154 | 35061 ft | 500 kts | 36° |
| 2026-05-07 17:01 | 34.52507 | 57.79673 | 35061 ft | 500 kts | 36° |
| 2026-05-07 17:02 | 34.57750 | 57.85212 | 35069 ft | 500 kts | 36° |
| 2026-05-07 17:02 | 34.62991 | 57.90759 | 35073 ft | 501 kts | 35° |
| 2026-05-07 17:03 | 34.68225 | 57.96312 | 35076 ft | 500 kts | 36° |
| 2026-05-07 17:03 | 34.73426 | 58.01838 | 35060 ft | 500 kts | 36° |
| 2026-05-07 17:04 | 34.78673 | 58.07418 | 35049 ft | 500 kts | 35° |
| 2026-05-07 17:04 | 34.83890 | 58.12979 | 35055 ft | 500 kts | 35° |
| 2026-05-07 17:05 | 34.89092 | 58.18533 | 35059 ft | 501 kts | 35° |
| 2026-05-07 17:05 | 34.94325 | 58.24134 | 35055 ft | 499 kts | 35° |
| 2026-05-07 17:06 | 34.99535 | 58.29716 | 35054 ft | 501 kts | 35° |
| 2026-05-07 17:06 | 35.04778 | 58.35344 | 35063 ft | 501 kts | 35° |
| 2026-05-07 17:07 | 35.09971 | 58.40931 | 35080 ft | 500 kts | 34° |
| 2026-05-07 17:07 | 35.15162 | 58.46524 | 35093 ft | 499 kts | 35° |
| 2026-05-07 17:08 | 35.20366 | 58.52141 | 35107 ft | 499 kts | 35° |
| 2026-05-07 17:08 | 35.25560 | 58.57753 | 35125 ft | 500 kts | 34° |
| 2026-05-07 17:09 | 35.30750 | 58.63376 | 35166 ft | 499 kts | 34° |
| 2026-05-07 17:09 | 35.35920 | 58.68986 | 35219 ft | 498 kts | 35° |
| 2026-05-07 17:10 | 35.41130 | 58.74644 | 35276 ft | 499 kts | 35° |
| 2026-05-07 17:10 | 35.46305 | 58.80279 | 35334 ft | 497 kts | 35° |
| 2026-05-07 17:11 | 35.51464 | 58.85893 | 35382 ft | 498 kts | 35° |
| 2026-05-07 17:11 | 35.56654 | 58.91492 | 35368 ft | 499 kts | 35° |
| 2026-05-07 17:12 | 35.61826 | 58.97069 | 35351 ft | 496 kts | 35° |
| 2026-05-07 17:12 | 35.67016 | 59.02677 | 35319 ft | 496 kts | 35° |
| 2026-05-07 17:13 | 35.72178 | 59.08267 | 35282 ft | 497 kts | 35° |
| 2026-05-07 17:13 | 35.77334 | 59.13866 | 35254 ft | 495 kts | 35° |
| 2026-05-07 17:14 | 35.82485 | 59.19472 | 35251 ft | 494 kts | 35° |
| 2026-05-07 17:14 | 35.87628 | 59.25080 | 35255 ft | 495 kts | 35° |
| 2026-05-07 17:15 | 35.92770 | 59.30696 | 35259 ft | 494 kts | 35° |
| 2026-05-07 17:15 | 35.97898 | 59.36300 | 35243 ft | 494 kts | 35° |
| 2026-05-07 17:16 | 36.03009 | 59.41899 | 35236 ft | 494 kts | 35° |
| 2026-05-07 17:16 | 36.08128 | 59.47519 | 35216 ft | 492 kts | 35° |
| 2026-05-07 17:17 | 36.13252 | 59.53162 | 35204 ft | 493 kts | 35° |
| 2026-05-07 17:17 | 36.18340 | 59.58770 | 35189 ft | 492 kts | 35° |
| 2026-05-07 17:18 | 36.23294 | 59.64632 | 35168 ft | 496 kts | 41° |
| 2026-05-07 17:18 | 36.27755 | 59.71155 | 35161 ft | 497 kts | 46° |
| 2026-05-07 17:19 | 36.32023 | 59.77964 | 35156 ft | 501 kts | 47° |
| 2026-05-07 17:19 | 36.36237 | 59.84793 | 35167 ft | 498 kts | 47° |
| 2026-05-07 17:20 | 36.40450 | 59.91590 | 35183 ft | 499 kts | 47° |
| 2026-05-07 17:20 | 36.44684 | 59.98379 | 35199 ft | 499 kts | 47° |
| 2026-05-07 17:21 | 36.48928 | 60.05172 | 35216 ft | 498 kts | 47° |
| 2026-05-07 17:21 | 36.53148 | 60.11926 | 35188 ft | 496 kts | 47° |
| 2026-05-07 17:22 | 36.57392 | 60.18725 | 35160 ft | 498 kts | 47° |
| 2026-05-07 17:22 | 36.61607 | 60.25496 | 35135 ft | 497 kts | 47° |
| 2026-05-07 17:23 | 36.65844 | 60.32317 | 35125 ft | 497 kts | 47° |
| 2026-05-07 17:23 | 36.70042 | 60.39108 | 35109 ft | 497 kts | 47° |
| 2026-05-07 17:24 | 36.74243 | 60.45943 | 35089 ft | 497 kts | 47° |
| 2026-05-07 17:24 | 36.78433 | 60.52777 | 35061 ft | 496 kts | 47° |
| 2026-05-07 17:25 | 36.82587 | 60.59566 | 35057 ft | 497 kts | 47° |
| 2026-05-07 17:25 | 36.86755 | 60.66388 | 35048 ft | 496 kts | 48° |
| 2026-05-07 17:26 | 36.90956 | 60.73275 | 35036 ft | 498 kts | 48° |
| 2026-05-07 17:26 | 36.95123 | 60.80121 | 35038 ft | 497 kts | 48° |
| 2026-05-07 17:27 | 36.99296 | 60.86981 | 35030 ft | 498 kts | 48° |
| 2026-05-07 17:27 | 37.03507 | 60.93843 | 35022 ft | 496 kts | 48° |
| 2026-05-07 17:28 | 37.07705 | 61.00664 | 35018 ft | 496 kts | 48° |
| 2026-05-07 17:28 | 37.11894 | 61.07483 | 35016 ft | 495 kts | 48° |
| 2026-05-07 17:29 | 37.16060 | 61.14288 | 35013 ft | 493 kts | 48° |
| 2026-05-07 17:29 | 37.20204 | 61.21078 | 35008 ft | 492 kts | 48° |
| 2026-05-07 17:30 | 37.24395 | 61.27901 | 35003 ft | 493 kts | 47° |
| 2026-05-07 17:30 | 37.28606 | 61.34669 | 35005 ft | 493 kts | 47° |
| 2026-05-07 17:31 | 37.32816 | 61.41432 | 35002 ft | 493 kts | 47° |
| 2026-05-07 17:31 | 37.37009 | 61.48190 | 34994 ft | 494 kts | 47° |
| 2026-05-07 17:32 | 37.41223 | 61.55007 | 34993 ft | 493 kts | 47° |
| 2026-05-07 17:32 | 37.45400 | 61.61785 | 34992 ft | 493 kts | 47° |
| 2026-05-07 17:33 | 37.49537 | 61.68515 | 34986 ft | 493 kts | 48° |
| 2026-05-07 17:33 | 37.53776 | 61.75425 | 34984 ft | 492 kts | 48° |
| 2026-05-07 17:34 | 37.57944 | 61.82233 | 34976 ft | 492 kts | 48° |
| 2026-05-07 17:34 | 37.61827 | 61.89345 | 34972 ft | 496 kts | 57° |
| 2026-05-07 17:35 | 37.64783 | 61.97166 | 34971 ft | 499 kts | 65° |
| 2026-05-07 17:35 | 37.67230 | 62.05327 | 34972 ft | 498 kts | 68° |
| 2026-05-07 17:36 | 37.69576 | 62.13515 | 34961 ft | 499 kts | 68° |
| 2026-05-07 17:36 | 37.71955 | 62.21752 | 34968 ft | 499 kts | 67° |
| 2026-05-07 17:37 | 37.74344 | 62.29924 | 34967 ft | 499 kts | 67° |
| 2026-05-07 17:37 | 37.76756 | 62.38129 | 34969 ft | 498 kts | 67° |
| 2026-05-07 17:38 | 37.79165 | 62.46318 | 34967 ft | 498 kts | 67° |
| 2026-05-07 17:38 | 37.81550 | 62.54441 | 34964 ft | 496 kts | 67° |
| 2026-05-07 17:39 | 37.83944 | 62.62613 | 34964 ft | 496 kts | 67° |
| 2026-05-07 17:39 | 37.86333 | 62.70792 | 34959 ft | 496 kts | 68° |
| 2026-05-07 17:40 | 37.88694 | 62.78897 | 34957 ft | 494 kts | 68° |
| 2026-05-07 17:40 | 37.91026 | 62.86927 | 34956 ft | 498 kts | 68° |
| 2026-05-07 17:41 | 37.93394 | 62.95109 | 34958 ft | 495 kts | 68° |
| 2026-05-07 17:41 | 37.95741 | 63.03249 | 34942 ft | 496 kts | 67° |
| 2026-05-07 17:42 | 37.98084 | 63.11395 | 34942 ft | 493 kts | 68° |
| 2026-05-07 17:42 | 38.00435 | 63.19590 | 34939 ft | 494 kts | 68° |
| 2026-05-07 17:43 | 38.02756 | 63.27706 | 34936 ft | 491 kts | 68° |
| 2026-05-07 17:43 | 38.05072 | 63.35831 | 34935 ft | 491 kts | 68° |
| 2026-05-07 17:44 | 38.07378 | 63.43949 | 34933 ft | 490 kts | 68° |
| 2026-05-07 17:44 | 38.09668 | 63.52032 | 34934 ft | 489 kts | 68° |
| 2026-05-07 17:45 | 38.11956 | 63.60131 | 34938 ft | 489 kts | 68° |
| 2026-05-07 17:45 | 38.14232 | 63.68214 | 34936 ft | 489 kts | 68° |
| 2026-05-07 17:46 | 38.16503 | 63.76305 | 34931 ft | 487 kts | 68° |
| 2026-05-07 17:46 | 38.18767 | 63.84395 | 34927 ft | 488 kts | 68° |
| 2026-05-07 17:47 | 38.21030 | 63.92509 | 34927 ft | 486 kts | 68° |
| 2026-05-07 17:47 | 38.23272 | 64.00576 | 34926 ft | 486 kts | 68° |
| 2026-05-07 17:48 | 38.25518 | 64.08675 | 34921 ft | 487 kts | 68° |
| 2026-05-07 17:48 | 38.27758 | 64.16775 | 34925 ft | 485 kts | 68° |
| 2026-05-07 17:49 | 38.29977 | 64.24826 | 34922 ft | 485 kts | 69° |
| 2026-05-07 17:49 | 38.32191 | 64.32886 | 34919 ft | 484 kts | 69° |
| 2026-05-07 17:50 | 38.34392 | 64.40926 | 34915 ft | 483 kts | 69° |
| 2026-05-07 17:50 | 38.36587 | 64.48962 | 34916 ft | 482 kts | 69° |
| 2026-05-07 17:51 | 38.38786 | 64.57040 | 34908 ft | 481 kts | 68° |
| 2026-05-07 17:51 | 38.40963 | 64.65061 | 34923 ft | 482 kts | 69° |
| 2026-05-07 17:52 | 38.43136 | 64.73099 | 34834 ft | 479 kts | 69° |
| 2026-05-07 17:52 | 38.44216 | 64.77103 | 35046 ft | 483 kts | 69° |
| 2026-05-07 17:52 | 38.45303 | 64.81134 | 34826 ft | 482 kts | 69° |
| 2026-05-07 17:53 | 38.46394 | 64.85191 | 34962 ft | 482 kts | 69° |
| 2026-05-07 17:53 | 38.47478 | 64.89226 | 34794 ft | 481 kts | 69° |
| 2026-05-07 17:53 | 38.48555 | 64.93245 | 34906 ft | 480 kts | 69° |
| 2026-05-07 17:53 | 38.49634 | 64.97274 | 34906 ft | 482 kts | 69° |
| 2026-05-07 17:54 | 38.51796 | 65.05300 | 34912 ft | 478 kts | 68° |
| 2026-05-07 17:54 | 38.54445 | 65.13017 | 34917 ft | 476 kts | 58° |
| 2026-05-07 17:55 | 38.57921 | 65.20138 | 34915 ft | 472 kts | 53° |
| 2026-05-07 17:55 | 38.61642 | 65.26987 | 34922 ft | 471 kts | 52° |
| 2026-05-07 17:56 | 38.65377 | 65.33836 | 34909 ft | 470 kts | 52° |
| 2026-05-07 17:56 | 38.69072 | 65.40732 | 34920 ft | 469 kts | 53° |
| 2026-05-07 17:57 | 38.72127 | 65.46500 | 34931 ft | 470 kts | 53° |
| 2026-05-07 17:57 | 38.76358 | 65.54554 | 34931 ft | 469 kts | 53° |
| 2026-05-07 17:58 | 38.79986 | 65.61492 | 35104 ft | 470 kts | 53° |
| 2026-05-07 17:58 | 38.81786 | 65.64945 | 34969 ft | 467 kts | 53° |
| 2026-05-07 17:58 | 38.83594 | 65.68416 | 34960 ft | 465 kts | 54° |
| 2026-05-07 17:59 | 38.87178 | 65.75306 | 34955 ft | 466 kts | 54° |
| 2026-05-07 17:59 | 38.90753 | 65.82191 | 34963 ft | 465 kts | 54° |
| 2026-05-07 18:00 | 38.94314 | 65.89063 | 34967 ft | 464 kts | 54° |
| 2026-05-07 18:00 | 38.97876 | 65.95953 | 34972 ft | 464 kts | 54° |
| 2026-05-07 18:01 | 39.01435 | 66.02851 | 34981 ft | 464 kts | 54° |
| 2026-05-07 18:01 | 39.04997 | 66.09771 | 34979 ft | 464 kts | 54° |
| 2026-05-07 18:02 | 39.10327 | 66.20152 | 34994 ft | 465 kts | 54° |
| 2026-05-07 18:03 | 39.13882 | 66.27095 | 34993 ft | 465 kts | 54° |
| 2026-05-07 18:03 | 39.17432 | 66.34044 | 35005 ft | 466 kts | 54° |
| 2026-05-07 18:04 | 39.20995 | 66.41032 | 35017 ft | 466 kts | 54° |
| 2026-05-07 18:04 | 39.24526 | 66.47976 | 35031 ft | 466 kts | 54° |
| 2026-05-07 18:05 | 39.28078 | 66.54974 | 35054 ft | 466 kts | 54° |
| 2026-05-07 18:05 | 39.31598 | 66.61922 | 35071 ft | 465 kts | 54° |
| 2026-05-07 18:06 | 39.35123 | 66.68893 | 35088 ft | 465 kts | 55° |
| 2026-05-07 18:06 | 39.38640 | 66.75863 | 35122 ft | 465 kts | 55° |
| 2026-05-07 18:07 | 39.42176 | 66.82883 | 35121 ft | 465 kts | 55° |
| 2026-05-07 18:07 | 39.45674 | 66.89849 | 35116 ft | 463 kts | 55° |
| 2026-05-07 18:08 | 39.49168 | 66.96821 | 35100 ft | 464 kts | 55° |
| 2026-05-07 18:08 | 39.52684 | 67.03851 | 35079 ft | 463 kts | 55° |
| 2026-05-07 18:09 | 39.56158 | 67.10818 | 35078 ft | 464 kts | 55° |
| 2026-05-07 18:09 | 39.59639 | 67.17812 | 35076 ft | 463 kts | 55° |
| 2026-05-07 18:10 | 39.63137 | 67.24858 | 35082 ft | 462 kts | 55° |
| 2026-05-07 18:10 | 39.66598 | 67.31844 | 35093 ft | 463 kts | 55° |
| 2026-05-07 18:11 | 39.70054 | 67.38831 | 34972 ft | 462 kts | 55° |
| 2026-05-07 18:11 | 39.73524 | 67.45868 | 35114 ft | 466 kts | 55° |
| 2026-05-07 18:12 | 39.76997 | 67.52932 | 35119 ft | 462 kts | 55° |
| 2026-05-07 18:12 | 39.80451 | 67.59933 | 35143 ft | 461 kts | 54° |
| 2026-05-07 18:13 | 39.84291 | 67.66540 | 35150 ft | 459 kts | 48° |
| 2026-05-07 18:13 | 39.88476 | 67.72787 | 35150 ft | 459 kts | 46° |
| 2026-05-07 18:14 | 39.92726 | 67.78976 | 35120 ft | 459 kts | 46° |
| 2026-05-07 18:14 | 39.96944 | 67.85156 | 35087 ft | 458 kts | 46° |
| 2026-05-07 18:15 | 40.01154 | 67.91380 | 35042 ft | 457 kts | 46° |
| 2026-05-07 18:15 | 40.05335 | 67.97602 | 35013 ft | 456 kts | 47° |
| 2026-05-07 18:16 | 40.09467 | 68.03777 | 34993 ft | 456 kts | 47° |
| 2026-05-07 18:16 | 40.13635 | 68.10021 | 34984 ft | 457 kts | 47° |
| 2026-05-07 18:17 | 40.17820 | 68.16305 | 34976 ft | 459 kts | 46° |
| 2026-05-07 18:17 | 40.21997 | 68.22591 | 34973 ft | 460 kts | 47° |
| 2026-05-07 18:18 | 40.26198 | 68.28928 | 34959 ft | 461 kts | 47° |
| 2026-05-07 18:18 | 40.30393 | 68.35269 | 34959 ft | 460 kts | 47° |
| 2026-05-07 18:19 | 40.34557 | 68.41576 | 34957 ft | 461 kts | 47° |
| 2026-05-07 18:19 | 40.38756 | 68.47949 | 34955 ft | 462 kts | 47° |
| 2026-05-07 18:20 | 40.42929 | 68.54295 | 34957 ft | 463 kts | 47° |
| 2026-05-07 18:20 | 40.47126 | 68.60692 | 34952 ft | 464 kts | 47° |
| 2026-05-07 18:21 | 40.51341 | 68.67129 | 34949 ft | 464 kts | 47° |
| 2026-05-07 18:21 | 40.55481 | 68.73585 | 34950 ft | 464 kts | 50° |
| 2026-05-07 18:22 | 40.59018 | 68.80642 | 34948 ft | 468 kts | 59° |
| 2026-05-07 18:22 | 40.61961 | 68.88291 | 34950 ft | 468 kts | 63° |
| 2026-05-07 18:23 | 40.64693 | 68.95999 | 34953 ft | 468 kts | 64° |
| 2026-05-07 18:23 | 40.67419 | 69.03740 | 34959 ft | 469 kts | 64° |
| 2026-05-07 18:24 | 40.70180 | 69.11520 | 34957 ft | 469 kts | 63° |
| 2026-05-07 18:24 | 40.72961 | 69.19319 | 34983 ft | 470 kts | 63° |
| 2026-05-07 18:25 | 40.75728 | 69.27059 | 34996 ft | 469 kts | 63° |
| 2026-05-07 18:25 | 40.78502 | 69.34825 | 35025 ft | 469 kts | 63° |
| 2026-05-07 18:26 | 40.81266 | 69.42590 | 35050 ft | 469 kts | 63° |
| 2026-05-07 18:26 | 40.84026 | 69.50362 | 35075 ft | 468 kts | 63° |
| 2026-05-07 18:27 | 40.86764 | 69.58100 | 35102 ft | 469 kts | 63° |
| 2026-05-07 18:27 | 40.89524 | 69.65918 | 35136 ft | 469 kts | 64° |
| 2026-05-07 18:28 | 40.92260 | 69.73692 | 35170 ft | 469 kts | 64° |
| 2026-05-07 18:28 | 40.95000 | 69.81496 | 35188 ft | 470 kts | 64° |
| 2026-05-07 18:29 | 40.97750 | 69.89348 | 35192 ft | 470 kts | 64° |
| 2026-05-07 18:29 | 41.00471 | 69.97144 | 35185 ft | 469 kts | 64° |
| 2026-05-07 18:30 | 41.03204 | 70.04993 | 35213 ft | 470 kts | 64° |
| 2026-05-07 18:30 | 41.05921 | 70.12815 | 35248 ft | 468 kts | 64° |
| 2026-05-07 18:31 | 41.08636 | 70.20653 | 35293 ft | 470 kts | 64° |
| 2026-05-07 18:31 | 41.11406 | 70.28418 | 35337 ft | 468 kts | 61° |
| 2026-05-07 18:32 | 41.14484 | 70.36019 | 35336 ft | 467 kts | 59° |
| 2026-05-07 18:32 | 41.17628 | 70.43537 | 35353 ft | 467 kts | 59° |
| 2026-05-07 18:33 | 41.20735 | 70.51038 | 35323 ft | 467 kts | 59° |
| 2026-05-07 18:33 | 41.23827 | 70.58605 | 35372 ft | 468 kts | 59° |
| 2026-05-07 18:34 | 41.26909 | 70.66215 | 35414 ft | 467 kts | 60° |
| 2026-05-07 18:34 | 41.29970 | 70.73812 | 35441 ft | 468 kts | 60° |
| 2026-05-07 18:35 | 41.33036 | 70.81445 | 35439 ft | 468 kts | 60° |
| 2026-05-07 18:35 | 41.36076 | 70.89040 | 35451 ft | 466 kts | 60° |
| 2026-05-07 18:36 | 41.39104 | 70.96625 | 35436 ft | 466 kts | 60° |
| 2026-05-07 18:36 | 41.42139 | 71.04244 | 35426 ft | 466 kts | 60° |
| 2026-05-07 18:37 | 41.45157 | 71.11840 | 35414 ft | 465 kts | 60° |
| 2026-05-07 18:37 | 41.48176 | 71.19458 | 35428 ft | 467 kts | 60° |
| 2026-05-07 18:38 | 41.51136 | 71.27124 | 35422 ft | 467 kts | 61° |
| 2026-05-07 18:38 | 41.53983 | 71.34891 | 35457 ft | 467 kts | 62° |
| 2026-05-07 18:39 | 41.56807 | 71.42683 | 35460 ft | 466 kts | 62° |
| 2026-05-07 18:39 | 41.59614 | 71.50414 | 35474 ft | 467 kts | 62° |
| 2026-05-07 18:40 | 41.62442 | 71.58192 | 35482 ft | 466 kts | 62° |
| 2026-05-07 18:40 | 41.65268 | 71.65968 | 35495 ft | 466 kts | 62° |
| 2026-05-07 18:41 | 41.68086 | 71.73733 | 35507 ft | 467 kts | 62° |
| 2026-05-07 18:41 | 41.70890 | 71.81483 | 35479 ft | 465 kts | 62° |
| 2026-05-07 18:42 | 41.73703 | 71.89256 | 35501 ft | 465 kts | 62° |
| 2026-05-07 18:42 | 41.76662 | 71.96960 | 35473 ft | 465 kts | 60° |
| 2026-05-07 18:43 | 41.79710 | 72.04623 | 35473 ft | 464 kts | 59° |
| 2026-05-07 18:43 | 41.82729 | 72.12228 | 35502 ft | 464 kts | 59° |
| 2026-05-07 18:44 | 41.85731 | 72.19853 | 35523 ft | 465 kts | 59° |
| 2026-05-07 18:44 | 41.88720 | 72.27499 | 35526 ft | 463 kts | 60° |
| 2026-05-07 18:45 | 41.91709 | 72.35184 | 35531 ft | 464 kts | 60° |
| 2026-05-07 18:45 | 41.94674 | 72.42834 | 35474 ft | 463 kts | 60° |
| 2026-05-07 18:46 | 41.97628 | 72.50473 | 35455 ft | 463 kts | 60° |
| 2026-05-07 18:46 | 42.00596 | 72.58170 | 35447 ft | 464 kts | 59° |
| 2026-05-07 18:47 | 42.03542 | 72.65836 | 35479 ft | 463 kts | 60° |
| 2026-05-07 18:47 | 42.06484 | 72.73508 | 35510 ft | 463 kts | 60° |
| 2026-05-07 18:47 | 42.07968 | 72.77388 | 35395 ft | 461 kts | 60° |
| 2026-05-07 18:48 | 42.09420 | 72.81189 | 35004 ft | 457 kts | 60° |
| 2026-05-07 18:48 | 42.10868 | 72.84983 | 34451 ft | 457 kts | 60° |
| 2026-05-07 18:48 | 42.12310 | 72.88763 | 33737 ft | 460 kts | 60° |
| 2026-05-07 18:48 | 42.13759 | 72.92564 | 32979 ft | 461 kts | 60° |
| 2026-05-07 18:49 | 42.15206 | 72.96371 | 32438 ft | 457 kts | 60° |
| 2026-05-07 18:49 | 42.16650 | 73.00178 | 31896 ft | 453 kts | 60° |
| 2026-05-07 18:49 | 42.18076 | 73.03941 | 31357 ft | 450 kts | 60° |
| 2026-05-07 18:49 | 42.19482 | 73.07657 | 30822 ft | 446 kts | 60° |
| 2026-05-07 18:50 | 42.20870 | 73.11330 | 30283 ft | 442 kts | 60° |
| 2026-05-07 18:50 | 42.22255 | 73.14999 | 29680 ft | 440 kts | 60° |
| 2026-05-07 18:50 | 42.23635 | 73.18662 | 29117 ft | 437 kts | 61° |
| 2026-05-07 18:50 | 42.25004 | 73.22297 | 28592 ft | 433 kts | 61° |
| 2026-05-07 18:51 | 42.26351 | 73.25881 | 28068 ft | 430 kts | 61° |
| 2026-05-07 18:51 | 42.27704 | 73.29482 | 27552 ft | 426 kts | 61° |
| 2026-05-07 18:51 | 42.29019 | 73.32987 | 27018 ft | 423 kts | 61° |
| 2026-05-07 18:51 | 42.30343 | 73.36519 | 26467 ft | 420 kts | 61° |
| 2026-05-07 18:52 | 42.31654 | 73.40020 | 25934 ft | 417 kts | 61° |
| 2026-05-07 18:52 | 42.32948 | 73.43480 | 25420 ft | 413 kts | 61° |
| 2026-05-07 18:52 | 42.34235 | 73.46928 | 24908 ft | 410 kts | 61° |
| 2026-05-07 18:52 | 42.35592 | 73.50249 | 24337 ft | 407 kts | 56° |
| 2026-05-07 18:53 | 42.37259 | 73.53289 | 23803 ft | 402 kts | 45° |
| 2026-05-07 18:53 | 42.39350 | 73.55754 | 23301 ft | 396 kts | 33° |
| 2026-05-07 18:53 | 42.41700 | 73.57627 | 22786 ft | 392 kts | 25° |
| 2026-05-07 18:53 | 42.44181 | 73.59115 | 22163 ft | 391 kts | 18° |
| 2026-05-07 18:54 | 42.46770 | 73.60049 | 21561 ft | 389 kts | 7° |
| 2026-05-07 18:54 | 42.49461 | 73.60236 | 21195 ft | 375 kts | 356° |
| 2026-05-07 18:54 | 42.52018 | 73.59987 | 20620 ft | 369 kts | 352° |
| 2026-05-07 18:54 | 42.54554 | 73.59584 | 19889 ft | 366 kts | 351° |
| 2026-05-07 18:55 | 42.57048 | 73.59129 | 19193 ft | 363 kts | 350° |
| 2026-05-07 18:55 | 42.59542 | 73.58658 | 18539 ft | 360 kts | 350° |
| 2026-05-07 18:55 | 42.62009 | 73.58192 | 17896 ft | 357 kts | 350° |
| 2026-05-07 18:55 | 42.64440 | 73.57744 | 17251 ft | 355 kts | 350° |
| 2026-05-07 18:56 | 42.66853 | 73.57309 | 16604 ft | 352 kts | 351° |
| 2026-05-07 18:56 | 42.69291 | 73.56876 | 15947 ft | 349 kts | 351° |
| 2026-05-07 18:56 | 42.71677 | 73.56457 | 15281 ft | 351 kts | 351° |
| 2026-05-07 18:56 | 42.74114 | 73.56030 | 14671 ft | 351 kts | 351° |
| 2026-05-07 18:57 | 42.76543 | 73.55679 | 14128 ft | 352 kts | 355° |
| 2026-05-07 18:57 | 42.78945 | 73.55898 | 13577 ft | 353 kts | 12° |
| 2026-05-07 18:57 | 42.81174 | 73.57267 | 13053 ft | 351 kts | 35° |
| 2026-05-07 18:57 | 42.82873 | 73.59616 | 12553 ft | 348 kts | 54° |
| 2026-05-07 18:58 | 42.84022 | 73.62450 | 12048 ft | 343 kts | 65° |
| 2026-05-07 18:58 | 42.84890 | 73.65439 | 11584 ft | 337 kts | 70° |
| 2026-05-07 18:58 | 42.85635 | 73.68383 | 11149 ft | 334 kts | 71° |
| 2026-05-07 18:58 | 42.86373 | 73.71429 | 10654 ft | 333 kts | 72° |
| 2026-05-07 18:59 | 42.87094 | 73.74399 | 10399 ft | 324 kts | 71° |
| 2026-05-07 18:59 | 42.87794 | 73.77245 | 10287 ft | 311 kts | 71° |
| 2026-05-07 18:59 | 42.88471 | 73.79967 | 10097 ft | 299 kts | 71° |
| 2026-05-07 18:59 | 42.89134 | 73.82613 | 9787 ft | 294 kts | 71° |
| 2026-05-07 19:00 | 42.89794 | 73.85239 | 9401 ft | 291 kts | 71° |
| 2026-05-07 19:00 | 42.90445 | 73.87823 | 9058 ft | 287 kts | 70° |
| 2026-05-07 19:00 | 42.91085 | 73.90369 | 8715 ft | 284 kts | 70° |
| 2026-05-07 19:00 | 42.91721 | 73.92899 | 8372 ft | 282 kts | 70° |
| 2026-05-07 19:01 | 42.92351 | 73.95406 | 8045 ft | 279 kts | 70° |
| 2026-05-07 19:01 | 42.92975 | 73.97891 | 7659 ft | 278 kts | 70° |
| 2026-05-07 19:01 | 42.93626 | 74.00370 | 7336 ft | 275 kts | 68° |
| 2026-05-07 19:01 | 42.94374 | 74.02750 | 7020 ft | 273 kts | 65° |
| 2026-05-07 19:02 | 42.95180 | 74.05076 | 6674 ft | 269 kts | 64° |
| 2026-05-07 19:02 | 42.95978 | 74.07332 | 6326 ft | 265 kts | 64° |
| 2026-05-07 19:02 | 42.96765 | 74.09588 | 6010 ft | 259 kts | 65° |
| 2026-05-07 19:02 | 42.97514 | 74.11764 | 5658 ft | 255 kts | 65° |
| 2026-05-07 19:03 | 42.98257 | 74.13940 | 5389 ft | 249 kts | 65° |
| 2026-05-07 19:03 | 42.98973 | 74.16041 | 5154 ft | 241 kts | 65° |
| 2026-05-07 19:03 | 42.99661 | 74.18061 | 4999 ft | 228 kts | 65° |
| 2026-05-07 19:03 | 43.00310 | 74.19962 | 4848 ft | 215 kts | 65° |
| 2026-05-07 19:04 | 43.00925 | 74.21767 | 4673 ft | 207 kts | 65° |
| 2026-05-07 19:04 | 43.01524 | 74.23522 | 4512 ft | 198 kts | 65° |
| 2026-05-07 19:04 | 43.02095 | 74.25191 | 4369 ft | 191 kts | 65° |
| 2026-05-07 19:04 | 43.02663 | 74.26823 | 4224 ft | 190 kts | 64° |
| 2026-05-07 19:05 | 43.03209 | 74.28454 | 4079 ft | 189 kts | 70° |
| 2026-05-07 19:05 | 43.03597 | 74.30140 | 3942 ft | 188 kts | 76° |
| 2026-05-07 19:05 | 43.03905 | 74.31865 | 3792 ft | 179 kts | 78° |
| 2026-05-07 19:05 | 43.04156 | 74.33457 | 3674 ft | 165 kts | 79° |
| 2026-05-07 19:06 | 43.04375 | 74.34945 | 3544 ft | 157 kts | 79° |
| 2026-05-07 19:06 | 43.04779 | 74.37848 | 3162 ft | 155 kts | 81° |
| 2026-05-07 19:06 | 43.04980 | 74.39317 | 2964 ft | 158 kts | 79° |
| 2026-05-07 19:07 | 43.05225 | 74.40773 | 2755 ft | 157 kts | 78° |
| 2026-05-07 19:07 | 43.05436 | 74.42218 | 2545 ft | 154 kts | 81° |
| 2026-05-07 19:07 | 43.05606 | 74.43642 | 2349 ft | 151 kts | 82° |
| 2026-05-07 19:07 | 43.05779 | 74.45072 | 2159 ft | 152 kts | 81° |
| 2026-05-07 19:08 | 43.05957 | 74.46445 | 2093 ft | 127 kts | 80° |
| 2026-05-07 19:08 | 43.06074 | 74.47355 | 2093 ft | 69 kts | 79° |
| 2026-05-07 19:08 | 43.06139 | 74.47851 | 2093 ft | 45 kts | 82° |
| 2026-05-07 19:08 | 43.06178 | 74.48180 | 2093 ft | 24 kts | 85° |
| 2026-05-07 19:09 | 43.06150 | 74.48370 | 2093 ft | 16 kts | 109° |
| 2026-05-07 19:09 | 43.06117 | 74.48469 | 2093 ft | 9 kts | 137° |
| 2026-05-07 19:09 | 43.06063 | 74.48502 | 2093 ft | 8 kts | 175° |
| 2026-05-07 19:09 | 43.06011 | 74.48453 | 2093 ft | 12 kts | 248° |
| 2026-05-07 19:10 | 43.05990 | 74.48334 | 2093 ft | 12 kts | 258° |
| 2026-05-07 19:10 | 43.05971 | 74.48205 | 2093 ft | 16 kts | 258° |
| 2026-05-07 19:10 | 43.05952 | 74.48024 | 2093 ft | 21 kts | 261° |
| 2026-05-07 19:10 | 43.05925 | 74.47822 | 2093 ft | 22 kts | 258° |
| 2026-05-07 19:11 | 43.05896 | 74.47609 | 2093 ft | 23 kts | 259° |
| 2026-05-07 19:11 | 43.05871 | 74.47401 | 2093 ft | 21 kts | 261° |
| 2026-05-07 19:11 | 43.05851 | 74.47249 | 2093 ft | 11 kts | 260° |
| 2026-05-07 19:11 | 43.05828 | 74.47157 | 2093 ft | 10 kts | 222° |
| 2026-05-07 19:12 | 43.05759 | 74.47160 | 2093 ft | 10 kts | 170° |
| 2026-05-07 19:12 | 43.05695 | 74.47137 | 2093 ft | 11 kts | 244° |
| 2026-05-07 19:12 | 43.05680 | 74.47047 | 2093 ft | 8 kts | 259° |
| 2026-05-07 19:12 | 43.05663 | 74.46980 | 2093 ft | 8 kts | 227° |
| 2026-05-07 19:13 | 43.05607 | 74.46931 | 2093 ft | 9 kts | 186° |
| 2026-05-07 19:13 | 43.05546 | 74.46950 | 2093 ft | 8 kts | 167° |
| 2026-05-07 19:13 | 43.05507 | 74.46959 | 2093 ft | 2 kts | 170° |
| 2026-05-07 19:13 | 43.05500 | 74.46960 | 2093 ft | 0 kts | 170° |